Terminal Aerodrome Forecast
Issued by NWS

Home | Current Version | Previous Version | Text Only | Print | Product List | Glossary On
Versions: 1 2 3 4 5 6 7 8 9 10 11 12
000
FTUS42 TJSJ 221700
TAFJBQ
TAF
TJBQ 221720Z 2218/2318 07014G20KT P6SM VCTS FEW025CB BKN050
      TEMPO 2219/2222 VRB12G24KT 3SM SHRA BKN025
     FM222230 09010KT P6SM FEW025 SCT070
     FM230400 11005KT P6SM FEW022
     FM231430 07016KT P6SM FEW025 SCT050=

USA.gov is the U.S. government's official web portal to all federal, state and local government web resources and services.